Time;durP1;ratioP1;P1;durP2;ratioP2;P2;SDS_P1;SDS_P2;PMS_P1;PMS_P2;Temp;Humidity;BMP_temperature;BMP_pressure;BME280_temperature;BME280_humidity;BME280_pressure;Samples;Min_cycle;Max_cycle;Signal;HPM_P1;HPM_P2
2023/06/28 00:07:40;;;;;;;7.07;5.35;;;;;;;;;;21001319;28;20052;-63
2023/06/28 00:17:41;;;;;;;9.60;5.03;;;;;;;;;;20999081;28;20048;-64
2023/06/28 00:27:42;;;;;;;7.72;5.05;;;;;;;;;;20998784;28;20044;-64
2023/06/28 00:37:43;;;;;;;9.70;6.13;;;;;;;;;;20997626;28;20048;-64
2023/06/28 00:47:44;;;;;;;19.98;11.10;;;;;;;;;;20998444;28;20051;-64
2023/06/28 00:57:45;;;;;;;13.48;9.55;;;;;;;;;;20997737;28;20059;-63
2023/06/28 01:07:47;;;;;;;13.73;9.13;;;;;;;;;;20997266;28;20048;-64
2023/06/28 01:17:49;;;;;;;7.88;5.18;;;;;;;;;;20996881;28;20044;-63
2023/06/28 01:27:51;;;;;;;13.90;9.02;;;;;;;;;;20996345;28;20079;-64
2023/06/28 01:37:53;;;;;;;8.05;4.45;;;;;;;;;;20995599;28;20551;-64
2023/06/28 01:47:54;;;;;;;5.13;4.13;;;;;;;;;;20995755;28;20114;-64
2023/06/28 01:57:55;;;;;;;8.30;4.72;;;;;;;;;;20995338;28;20048;-64
2023/06/28 02:07:56;;;;;;;6.65;4.28;;;;;;;;;;21003891;28;20506;-64
2023/06/28 02:17:58;;;;;;;6.60;4.85;;;;;;;;;;21009001;28;20075;-64
2023/06/28 02:27:59;;;;;;;6.15;4.22;;;;;;;;;;21009184;28;20047;-64
2023/06/28 02:38:00;;;;;;;6.18;4.40;;;;;;;;;;21009259;28;20143;-63
2023/06/28 02:48:01;;;;;;;8.63;4.53;;;;;;;;;;21007837;28;20055;-64
2023/06/28 02:58:02;;;;;;;5.82;4.03;;;;;;;;;;21005909;28;20049;-63
2023/06/28 03:08:04;;;;;;;7.95;4.57;;;;;;;;;;21006450;28;20048;-64
2023/06/28 03:18:05;;;;;;;6.85;4.95;;;;;;;;;;21005908;28;20040;-64
2023/06/28 03:28:06;;;;;;;7.30;4.68;;;;;;;;;;21004814;28;20507;-64
2023/06/28 03:38:07;;;;;;;7.57;5.07;;;;;;;;;;21002636;28;20044;-63
2023/06/28 03:48:09;;;;;;;8.40;4.18;;;;;;;;;;21003272;28;20044;-63
2023/06/28 03:58:10;;;;;;;7.70;4.72;;;;;;;;;;21001248;28;20043;-64
2023/06/28 04:08:12;;;;;;;7.80;4.63;;;;;;;;;;21001635;28;20129;-64
2023/06/28 04:18:13;;;;;;;5.68;4.20;;;;;;;;;;21001076;28;20494;-64
2023/06/28 04:28:14;;;;;;;6.88;4.30;;;;;;;;;;20999445;28;20076;-64
2023/06/28 04:38:15;;;;;;;6.22;4.07;;;;;;;;;;20997429;28;20052;-64
2023/06/28 04:48:16;;;;;;;6.22;4.55;;;;;;;;;;20998684;28;20076;-64
2023/06/28 04:58:17;;;;;;;6.88;4.40;;;;;;;;;;20996904;28;20055;-63
2023/06/28 05:08:18;;;;;;;6.35;4.30;;;;;;;;;;20997464;28;20481;-64
2023/06/28 05:18:20;;;;;;;7.78;4.82;;;;;;;;;;20997310;28;20123;-63
2023/06/28 05:28:21;;;;;;;8.70;4.38;;;;;;;;;;20996924;28;20123;-64
2023/06/28 05:38:22;;;;;;;7.70;4.68;;;;;;;;;;20996987;28;20123;-63
2023/06/28 05:48:23;;;;;;;8.70;4.63;;;;;;;;;;21011396;28;20048;-64
2023/06/28 05:58:24;;;;;;;8.40;4.15;;;;;;;;;;21012033;28;20045;-64
2023/06/28 06:08:25;;;;;;;7.68;3.85;;;;;;;;;;21011027;28;20044;-64
2023/06/28 06:18:26;;;;;;;7.15;3.85;;;;;;;;;;21010198;28;20040;-63
2023/06/28 06:28:27;;;;;;;6.93;4.15;;;;;;;;;;21008069;28;20044;-64
2023/06/28 06:38:28;;;;;;;8.75;5.55;;;;;;;;;;21003124;28;20600;-64
2023/06/28 06:48:30;;;;;;;12.85;4.43;;;;;;;;;;21001521;28;20048;-63
2023/06/28 06:58:31;;;;;;;6.40;4.00;;;;;;;;;;21002860;28;20521;-64
2023/06/28 07:08:33;;;;;;;6.90;4.10;;;;;;;;;;21001996;28;20127;-63
2023/06/28 07:18:34;;;;;;;10.38;4.60;;;;;;;;;;21000208;28;20044;-64
2023/06/28 07:28:35;;;;;;;7.20;3.72;;;;;;;;;;20999175;28;20044;-64
2023/06/28 07:38:37;;;;;;;10.85;4.80;;;;;;;;;;20960552;28;1216306;-64
2023/06/28 07:48:38;;;;;;;11.80;4.38;;;;;;;;;;21002894;28;20124;-64
2023/06/28 07:58:39;;;;;;;11.20;4.32;;;;;;;;;;21001980;28;20040;-63
2023/06/28 08:08:40;;;;;;;8.55;4.68;;;;;;;;;;21000602;28;20414;-62
2023/06/28 08:18:41;;;;;;;11.35;4.93;;;;;;;;;;21000404;28;20120;-60
2023/06/28 08:28:42;;;;;;;12.68;5.28;;;;;;;;;;20999614;28;20036;-61
2023/06/28 08:38:43;;;;;;;14.77;4.90;;;;;;;;;;20997779;28;20497;-60
2023/06/28 08:48:46;;;;;;;7.65;4.18;;;;;;;;;;20998380;28;20051;-60
2023/06/28 08:58:48;;;;;;;11.20;4.47;;;;;;;;;;20997396;28;20048;-59
2023/06/28 09:08:50;;;;;;;11.07;5.07;;;;;;;;;;20997194;28;20128;-62
2023/06/28 09:18:52;;;;;;;11.27;5.57;;;;;;;;;;20996330;28;20439;-65
2023/06/28 09:28:53;;;;;;;10.18;5.20;;;;;;;;;;20995559;28;20146;-59
2023/06/28 09:38:56;;;;;;;9.70;5.05;;;;;;;;;;20994319;28;20052;-61
2023/06/28 09:48:57;;;;;;;11.15;5.50;;;;;;;;;;20995555;28;20052;-61
2023/06/28 09:58:58;;;;;;;8.45;4.88;;;;;;;;;;20995064;28;20079;-62
2023/06/28 10:09:00;;;;;;;8.80;4.70;;;;;;;;;;20995023;28;20371;-60
2023/06/28 10:19:01;;;;;;;10.15;5.20;;;;;;;;;;20993272;28;20045;-61
2023/06/28 10:29:03;;;;;;;8.25;5.32;;;;;;;;;;21002696;28;20086;-61
2023/06/28 10:39:07;;;;;;;7.13;5.03;;;;;;;;;;21007182;28;20508;-60
2023/06/28 10:49:08;;;;;;;11.03;5.17;;;;;;;;;;21007691;28;20052;-60
2023/06/28 10:59:10;;;;;;;9.57;5.03;;;;;;;;;;21005885;28;20127;-60
2023/06/28 11:09:15;;;;;;;7.35;5.20;;;;;;;;;;21004791;28;20101;-60
2023/06/28 11:19:18;;;;;;;9.45;4.97;;;;;;;;;;21005647;28;20444;-61
2023/06/28 11:29:20;;;;;;;8.82;6.00;;;;;;;;;;21005097;28;20116;-62
2023/06/28 11:39:21;;;;;;;10.77;6.93;;;;;;;;;;21003766;28;20067;-61
2023/06/28 11:49:23;;;;;;;11.73;6.03;;;;;;;;;;21002210;28;20049;-61
2023/06/28 11:59:27;;;;;;;12.77;6.30;;;;;;;;;;21001328;28;20041;-61
2023/06/28 12:09:28;;;;;;;;;;;;;;;;;;21002561;28;20558;-60
2023/06/28 12:19:35;;;;;;;11.55;6.68;;;;;;;;;;20998760;28;19927;-60
2023/06/28 12:29:37;;;;;;;13.40;6.22;;;;;;;;;;20997608;28;20128;-61
2023/06/28 12:39:39;;;;;;;13.15;8.60;;;;;;;;;;20997221;28;20052;-61
2023/06/28 12:49:40;;;;;;;16.77;10.93;;;;;;;;;;20998276;28;20044;-61
2023/06/28 12:59:41;;;;;;;15.43;10.63;;;;;;;;;;20998026;28;20090;-61
2023/06/28 13:09:42;;;;;;;29.40;19.10;;;;;;;;;;20997377;28;20070;-61
2023/06/28 13:19:43;;;;;;;27.10;17.77;;;;;;;;;;20997061;28;20434;-61
2023/06/28 13:29:44;;;;;;;24.63;16.83;;;;;;;;;;20996903;28;20508;-61
2023/06/28 13:39:45;;;;;;;26.67;17.63;;;;;;;;;;20994876;28;20048;-61
2023/06/28 13:49:47;;;;;;;43.20;27.42;;;;;;;;;;20995955;28;20049;-60
2023/06/28 13:59:48;;;;;;;49.45;32.25;;;;;;;;;;20997553;28;20044;-61
2023/06/28 14:09:49;;;;;;;47.10;29.70;;;;;;;;;;21010852;28;20052;-61
2023/06/28 14:19:50;;;;;;;59.28;37.05;;;;;;;;;;21008259;28;20044;-61
2023/06/28 14:29:51;;;;;;;55.88;35.33;;;;;;;;;;21009711;28;20177;-61
2023/06/28 14:39:52;;;;;;;52.75;34.72;;;;;;;;;;21008949;28;20158;-61
2023/06/28 14:49:53;;;;;;;67.38;42.45;;;;;;;;;;21008221;28;20056;-61
2023/06/28 14:59:54;;;;;;;64.20;40.28;;;;;;;;;;21007150;28;20037;-61
2023/06/28 15:09:56;;;;;;;85.43;51.90;;;;;;;;;;21006444;28;20466;-61
2023/06/28 15:19:57;;;;;;;72.65;47.03;;;;;;;;;;21005770;28;20044;-62
2023/06/28 15:29:58;;;;;;;61.22;40.20;;;;;;;;;;21005034;28;20090;-61
2023/06/28 15:39:59;;;;;;;44.40;29.27;;;;;;;;;;21002819;28;20056;-62
2023/06/28 15:50:00;;;;;;;50.65;33.22;;;;;;;;;;21001776;28;20098;-61
2023/06/28 16:00:01;;;;;;;51.83;34.70;;;;;;;;;;21001170;28;20481;-61
2023/06/28 16:10:03;;;;;;;68.50;44.58;;;;;;;;;;20999188;28;20040;-66
2023/06/28 16:20:06;;;;;;;60.95;41.78;;;;;;;;;;20999835;28;20045;-66
2023/06/28 16:30:07;;;;;;;73.53;47.03;;;;;;;;;;20998799;28;20391;-65
2023/06/28 16:40:09;;;;;;;63.90;41.05;;;;;;;;;;20998252;28;20113;-69
2023/06/28 16:50:10;;;;;;;60.75;39.42;;;;;;;;;;20996958;28;20044;-71
2023/06/28 17:00:11;;;;;;;60.45;40.72;;;;;;;;;;20996056;28;20054;-66
2023/06/28 17:10:12;;;;;;;57.50;36.25;;;;;;;;;;20996657;28;20041;-67
2023/06/28 17:20:15;;;;;;;53.38;34.50;;;;;;;;;;20997081;28;20453;-70
2023/06/28 17:30:17;;;;;;;33.85;23.48;;;;;;;;;;20994782;28;20044;-61
2023/06/28 17:40:18;;;;;;;32.03;22.15;;;;;;;;;;21010229;28;20045;-62
2023/06/28 17:50:19;;;;;;;35.20;22.85;;;;;;;;;;21012649;28;20106;-62
2023/06/28 18:00:20;;;;;;;34.38;23.33;;;;;;;;;;21012140;28;20048;-61
2023/06/28 18:10:21;;;;;;;37.97;25.88;;;;;;;;;;21011294;28;20123;-62
2023/06/28 18:20:23;;;;;;;35.70;25.08;;;;;;;;;;21010546;28;20055;-61
2023/06/28 18:30:24;;;;;;;39.53;25.77;;;;;;;;;;21008897;28;20060;-61
2023/06/28 18:40:26;;;;;;;36.80;25.77;;;;;;;;;;21008842;28;20114;-62
2023/06/28 18:50:27;;;;;;;40.13;27.42;;;;;;;;;;21005668;28;20110;-61
2023/06/28 19:00:28;;;;;;;33.47;22.60;;;;;;;;;;21007186;28;20040;-62
2023/06/28 19:10:29;;;;;;;32.08;21.63;;;;;;;;;;21006456;28;20040;-61
2023/06/28 19:20:30;;;;;;;23.05;17.15;;;;;;;;;;21006110;28;20037;-61
2023/06/28 19:30:31;;;;;;;22.73;17.40;;;;;;;;;;21005026;28;20493;-61
2023/06/28 19:40:32;;;;;;;18.95;13.98;;;;;;;;;;21003459;28;20094;-62
2023/06/28 19:50:34;;;;;;;17.13;12.55;;;;;;;;;;21002522;28;20080;-62
2023/06/28 20:00:35;;;;;;;17.23;11.98;;;;;;;;;;21000036;28;20059;-61
2023/06/28 20:10:36;;;;;;;14.85;11.55;;;;;;;;;;21001705;28;20045;-61
2023/06/28 20:20:37;;;;;;;14.80;10.88;;;;;;;;;;21001092;28;20124;-62
2023/06/28 20:30:38;;;;;;;13.52;10.88;;;;;;;;;;21000181;28;20048;-62
2023/06/28 20:40:39;;;;;;;13.18;10.52;;;;;;;;;;20997125;28;20132;-61
2023/06/28 20:50:42;;;;;;;15.07;10.68;;;;;;;;;;20996459;28;20127;-61
2023/06/28 21:00:44;;;;;;;17.13;12.68;;;;;;;;;;20996742;28;20379;-61
2023/06/28 21:10:45;;;;;;;12.70;9.82;;;;;;;;;;20995161;28;20040;-62
2023/06/28 21:20:46;;;;;;;13.70;10.57;;;;;;;;;;20995878;28;20040;-61
2023/06/28 21:30:47;;;;;;;14.15;11.38;;;;;;;;;;20995429;28;20101;-61
2023/06/28 21:40:48;;;;;;;14.05;10.65;;;;;;;;;;20996243;28;20048;-62
2023/06/28 21:50:50;;;;;;;18.17;13.45;;;;;;;;;;20995733;28;20072;-62
2023/06/28 22:00:51;;;;;;;15.13;11.80;;;;;;;;;;20994072;28;20123;-62
2023/06/28 22:10:54;;;;;;;14.80;10.73;;;;;;;;;;20995158;28;20120;-62
2023/06/28 22:20:55;;;;;;;20.63;14.48;;;;;;;;;;20997443;28;20041;-62
2023/06/28 22:30:56;;;;;;;15.30;10.70;;;;;;;;;;21009922;28;20056;-62
2023/06/28 22:40:57;;;;;;;19.35;12.52;;;;;;;;;;21009077;28;20049;-61
2023/06/28 22:51:04;;;;;;;17.25;12.80;;;;;;;;;;21008402;28;20037;-62
2023/06/28 23:01:05;;;;;;;19.42;13.10;;;;;;;;;;21007788;28;20047;-62
2023/06/28 23:11:06;;;;;;;23.35;13.65;;;;;;;;;;21005922;28;20041;-61
2023/06/28 23:21:09;;;;;;;20.65;14.02;;;;;;;;;;21006268;28;20473;-61
2023/06/28 23:31:10;;;;;;;19.35;13.02;;;;;;;;;;21004696;28;20048;-61
2023/06/28 23:41:12;;;;;;;24.90;18.40;;;;;;;;;;21003026;28;20084;-61
2023/06/28 23:51:13;;;;;;;34.50;24.98;;;;;;;;;;21002296;28;20154;-62
